sensor_id;sensor_type;location;lat;lon;timestamp;P1;durP1;ratioP1;P2;durP2;ratioP2
61144;SDS011;47026;51.208;3.288;2022-10-16T00:01:13;3.75;;;2.60;;
61144;SDS011;47026;51.208;3.288;2022-10-16T00:03:40;5.40;;;2.55;;
61144;SDS011;47026;51.208;3.288;2022-10-16T00:06:07;3.83;;;2.60;;
61144;SDS011;47026;51.208;3.288;2022-10-16T00:08:34;5.45;;;2.60;;
61144;SDS011;47026;51.208;3.288;2022-10-16T00:11:01;4.03;;;2.50;;
61144;SDS011;47026;51.208;3.288;2022-10-16T00:13:33;5.07;;;2.60;;
61144;SDS011;47026;51.208;3.288;2022-10-16T00:16:00;6.00;;;2.60;;
61144;SDS011;47026;51.208;3.288;2022-10-16T00:18:27;4.22;;;2.40;;
61144;SDS011;47026;51.208;3.288;2022-10-16T00:20:53;3.87;;;2.60;;
61144;SDS011;47026;51.208;3.288;2022-10-16T00:23:20;3.22;;;2.50;;
61144;SDS011;47026;51.208;3.288;2022-10-16T00:25:54;3.90;;;2.83;;
61144;SDS011;47026;51.208;3.288;2022-10-16T00:28:21;3.37;;;2.05;;
61144;SDS011;47026;51.208;3.288;2022-10-16T00:33:12;5.28;;;2.20;;
61144;SDS011;47026;51.208;3.288;2022-10-16T00:38:03;3.33;;;1.67;;
61144;SDS011;47026;51.208;3.288;2022-10-16T00:42:54;2.78;;;1.70;;
61144;SDS011;47026;51.208;3.288;2022-10-16T00:47:45;3.30;;;1.65;;
61144;SDS011;47026;51.208;3.288;2022-10-16T00:50:25;4.55;;;2.15;;
61144;SDS011;47026;51.208;3.288;2022-10-16T00:52:54;5.12;;;1.75;;
61144;SDS011;47026;51.208;3.288;2022-10-16T00:55:22;2.72;;;1.70;;
61144;SDS011;47026;51.208;3.288;2022-10-16T00:57:48;2.42;;;1.65;;
61144;SDS011;47026;51.208;3.288;2022-10-16T01:00:18;3.75;;;1.75;;
61144;SDS011;47026;51.208;3.288;2022-10-16T01:02:51;2.40;;;2.00;;
61144;SDS011;47026;51.208;3.288;2022-10-16T01:08:31;2.08;;;1.55;;
61144;SDS011;47026;51.208;3.288;2022-10-16T01:11:07;2.15;;;1.50;;
61144;SDS011;47026;51.208;3.288;2022-10-16T01:13:40;2.53;;;1.80;;
61144;SDS011;47026;51.208;3.288;2022-10-16T01:18:44;2.17;;;1.95;;
61144;SDS011;47026;51.208;3.288;2022-10-16T01:23:51;3.50;;;1.70;;
61144;SDS011;47026;51.208;3.288;2022-10-16T01:29:18;2.87;;;1.80;;
61144;SDS011;47026;51.208;3.288;2022-10-16T01:31:56;3.72;;;1.77;;
61144;SDS011;47026;51.208;3.288;2022-10-16T01:34:59;2.25;;;1.50;;
61144;SDS011;47026;51.208;3.288;2022-10-16T01:37:41;2.67;;;1.40;;
61144;SDS011;47026;51.208;3.288;2022-10-16T01:40:41;4.43;;;1.50;;
61144;SDS011;47026;51.208;3.288;2022-10-16T01:43:15;2.42;;;1.60;;
61144;SDS011;47026;51.208;3.288;2022-10-16T01:45:44;2.55;;;1.60;;
61144;SDS011;47026;51.208;3.288;2022-10-16T01:48:16;2.75;;;1.58;;
61144;SDS011;47026;51.208;3.288;2022-10-16T01:50:44;2.10;;;1.60;;
61144;SDS011;47026;51.208;3.288;2022-10-16T01:53:19;4.43;;;1.75;;
61144;SDS011;47026;51.208;3.288;2022-10-16T01:55:46;3.08;;;1.95;;
61144;SDS011;47026;51.208;3.288;2022-10-16T01:58:14;4.60;;;1.60;;
61144;SDS011;47026;51.208;3.288;2022-10-16T02:00:41;3.72;;;1.80;;
61144;SDS011;47026;51.208;3.288;2022-10-16T02:03:10;4.20;;;1.92;;
61144;SDS011;47026;51.208;3.288;2022-10-16T02:05:56;4.80;;;2.20;;
61144;SDS011;47026;51.208;3.288;2022-10-16T02:08:24;2.15;;;1.62;;
61144;SDS011;47026;51.208;3.288;2022-10-16T02:10:54;3.90;;;1.75;;
61144;SDS011;47026;51.208;3.288;2022-10-16T02:13:24;3.60;;;1.90;;
61144;SDS011;47026;51.208;3.288;2022-10-16T02:15:55;2.30;;;1.70;;
61144;SDS011;47026;51.208;3.288;2022-10-16T02:21:00;3.78;;;1.90;;
61144;SDS011;47026;51.208;3.288;2022-10-16T02:26:24;2.35;;;1.75;;
61144;SDS011;47026;51.208;3.288;2022-10-16T02:29:02;2.75;;;1.52;;
61144;SDS011;47026;51.208;3.288;2022-10-16T02:31:32;5.62;;;2.22;;
61144;SDS011;47026;51.208;3.288;2022-10-16T02:34:03;3.50;;;1.50;;
61144;SDS011;47026;51.208;3.288;2022-10-16T02:36:31;3.47;;;1.80;;
61144;SDS011;47026;51.208;3.288;2022-10-16T02:38:58;5.60;;;1.90;;
61144;SDS011;47026;51.208;3.288;2022-10-16T02:41:26;1.92;;;1.55;;
61144;SDS011;47026;51.208;3.288;2022-10-16T02:46:17;2.10;;;1.80;;
61144;SDS011;47026;51.208;3.288;2022-10-16T02:48:43;2.90;;;1.70;;
61144;SDS011;47026;51.208;3.288;2022-10-16T02:53:35;2.25;;;1.67;;
61144;SDS011;47026;51.208;3.288;2022-10-16T02:58:28;3.15;;;1.60;;
61144;SDS011;47026;51.208;3.288;2022-10-16T03:03:20;2.65;;;1.70;;
61144;SDS011;47026;51.208;3.288;2022-10-16T03:08:11;4.37;;;2.08;;
61144;SDS011;47026;51.208;3.288;2022-10-16T03:10:38;3.70;;;1.80;;
61144;SDS011;47026;51.208;3.288;2022-10-16T03:15:29;5.10;;;1.90;;
61144;SDS011;47026;51.208;3.288;2022-10-16T03:22:48;3.87;;;1.80;;
61144;SDS011;47026;51.208;3.288;2022-10-16T03:27:39;3.92;;;1.77;;
61144;SDS011;47026;51.208;3.288;2022-10-16T03:32:30;3.80;;;2.00;;
61144;SDS011;47026;51.208;3.288;2022-10-16T03:37:22;1.95;;;1.40;;
61144;SDS011;47026;51.208;3.288;2022-10-16T03:42:13;5.68;;;1.37;;
61144;SDS011;47026;51.208;3.288;2022-10-16T03:47:04;2.47;;;1.52;;
61144;SDS011;47026;51.208;3.288;2022-10-16T03:51:55;3.55;;;1.40;;
61144;SDS011;47026;51.208;3.288;2022-10-16T03:56:47;3.10;;;1.50;;
61144;SDS011;47026;51.208;3.288;2022-10-16T04:01:38;2.72;;;1.33;;
61144;SDS011;47026;51.208;3.288;2022-10-16T04:06:29;3.12;;;1.52;;
61144;SDS011;47026;51.208;3.288;2022-10-16T04:11:21;4.45;;;1.40;;
61144;SDS011;47026;51.208;3.288;2022-10-16T04:16:12;2.65;;;1.33;;
61144;SDS011;47026;51.208;3.288;2022-10-16T04:21:06;3.00;;;1.42;;
61144;SDS011;47026;51.208;3.288;2022-10-16T04:23:33;5.03;;;1.70;;
61144;SDS011;47026;51.208;3.288;2022-10-16T04:28:24;4.10;;;1.75;;
61144;SDS011;47026;51.208;3.288;2022-10-16T04:30:50;6.43;;;1.83;;
61144;SDS011;47026;51.208;3.288;2022-10-16T04:33:15;4.28;;;1.70;;
61144;SDS011;47026;51.208;3.288;2022-10-16T04:38:07;3.92;;;1.50;;
61144;SDS011;47026;51.208;3.288;2022-10-16T04:40:33;2.58;;;1.30;;
61144;SDS011;47026;51.208;3.288;2022-10-16T04:43:01;3.80;;;1.50;;
61144;SDS011;47026;51.208;3.288;2022-10-16T04:45:29;3.08;;;1.23;;
61144;SDS011;47026;51.208;3.288;2022-10-16T04:50:24;6.68;;;1.70;;
61144;SDS011;47026;51.208;3.288;2022-10-16T04:55:15;1.98;;;1.40;;
61144;SDS011;47026;51.208;3.288;2022-10-16T05:00:07;8.15;;;1.90;;
61144;SDS011;47026;51.208;3.288;2022-10-16T05:02:33;4.72;;;1.50;;
61144;SDS011;47026;51.208;3.288;2022-10-16T05:07:24;5.90;;;1.50;;
61144;SDS011;47026;51.208;3.288;2022-10-16T05:12:15;6.97;;;1.70;;
61144;SDS011;47026;51.208;3.288;2022-10-16T05:17:07;4.65;;;1.60;;
61144;SDS011;47026;51.208;3.288;2022-10-16T05:21:58;5.70;;;1.58;;
61144;SDS011;47026;51.208;3.288;2022-10-16T05:26:50;5.40;;;1.60;;
61144;SDS011;47026;51.208;3.288;2022-10-16T05:29:16;7.28;;;1.60;;
61144;SDS011;47026;51.208;3.288;2022-10-16T05:34:07;3.65;;;1.62;;
61144;SDS011;47026;51.208;3.288;2022-10-16T05:38:58;3.22;;;1.40;;
61144;SDS011;47026;51.208;3.288;2022-10-16T05:43:51;3.60;;;1.42;;
61144;SDS011;47026;51.208;3.288;2022-10-16T05:48:43;6.25;;;1.70;;
61144;SDS011;47026;51.208;3.288;2022-10-16T05:51:10;2.53;;;1.40;;
61144;SDS011;47026;51.208;3.288;2022-10-16T05:53:38;3.83;;;2.10;;
61144;SDS011;47026;51.208;3.288;2022-10-16T05:56:05;5.20;;;1.52;;
61144;SDS011;47026;51.208;3.288;2022-10-16T05:58:36;5.10;;;1.92;;
61144;SDS011;47026;51.208;3.288;2022-10-16T06:01:03;4.95;;;1.77;;
61144;SDS011;47026;51.208;3.288;2022-10-16T06:03:31;5.57;;;1.58;;
61144;SDS011;47026;51.208;3.288;2022-10-16T06:08:23;4.00;;;1.60;;
61144;SDS011;47026;51.208;3.288;2022-10-16T06:10:59;2.62;;;1.50;;
61144;SDS011;47026;51.208;3.288;2022-10-16T06:13:35;5.60;;;1.87;;
61144;SDS011;47026;51.208;3.288;2022-10-16T06:18:27;4.90;;;1.70;;
61144;SDS011;47026;51.208;3.288;2022-10-16T06:20:54;1.98;;;1.48;;
61144;SDS011;47026;51.208;3.288;2022-10-16T06:23:20;5.12;;;1.50;;
61144;SDS011;47026;51.208;3.288;2022-10-16T06:28:12;4.90;;;1.77;;
61144;SDS011;47026;51.208;3.288;2022-10-16T06:30:39;6.45;;;1.77;;
61144;SDS011;47026;51.208;3.288;2022-10-16T06:35:30;8.85;;;1.95;;
61144;SDS011;47026;51.208;3.288;2022-10-16T06:37:57;5.78;;;2.00;;
61144;SDS011;47026;51.208;3.288;2022-10-16T06:42:48;5.62;;;2.00;;
61144;SDS011;47026;51.208;3.288;2022-10-16T06:45:15;7.45;;;1.87;;
61144;SDS011;47026;51.208;3.288;2022-10-16T06:50:06;5.95;;;1.98;;
61144;SDS011;47026;51.208;3.288;2022-10-16T06:52:33;7.18;;;1.95;;
61144;SDS011;47026;51.208;3.288;2022-10-16T06:54:59;5.57;;;1.95;;
61144;SDS011;47026;51.208;3.288;2022-10-16T06:59:50;3.70;;;1.70;;
61144;SDS011;47026;51.208;3.288;2022-10-16T07:04:41;4.87;;;1.58;;
61144;SDS011;47026;51.208;3.288;2022-10-16T07:09:32;7.25;;;1.95;;
61144;SDS011;47026;51.208;3.288;2022-10-16T07:14:23;4.53;;;2.00;;
61144;SDS011;47026;51.208;3.288;2022-10-16T07:16:49;7.03;;;1.70;;
61144;SDS011;47026;51.208;3.288;2022-10-16T07:21:42;4.53;;;1.75;;
61144;SDS011;47026;51.208;3.288;2022-10-16T07:24:18;6.47;;;1.80;;
61144;SDS011;47026;51.208;3.288;2022-10-16T07:26:44;7.12;;;1.95;;
61144;SDS011;47026;51.208;3.288;2022-10-16T07:29:15;7.40;;;2.08;;
61144;SDS011;47026;51.208;3.288;2022-10-16T07:31:42;9.00;;;1.95;;
61144;SDS011;47026;51.208;3.288;2022-10-16T07:34:08;6.30;;;1.70;;
61144;SDS011;47026;51.208;3.288;2022-10-16T07:36:36;6.82;;;1.83;;
61144;SDS011;47026;51.208;3.288;2022-10-16T07:41:27;5.18;;;1.30;;
61144;SDS011;47026;51.208;3.288;2022-10-16T07:46:20;3.75;;;1.52;;
61144;SDS011;47026;51.208;3.288;2022-10-16T07:48:47;3.92;;;1.42;;
61144;SDS011;47026;51.208;3.288;2022-10-16T07:53:42;4.00;;;1.40;;
61144;SDS011;47026;51.208;3.288;2022-10-16T07:56:08;4.50;;;1.50;;
61144;SDS011;47026;51.208;3.288;2022-10-16T07:58:34;4.87;;;1.73;;
61144;SDS011;47026;51.208;3.288;2022-10-16T08:01:06;4.53;;;1.50;;
61144;SDS011;47026;51.208;3.288;2022-10-16T08:03:33;5.25;;;1.50;;
61144;SDS011;47026;51.208;3.288;2022-10-16T08:05:59;4.05;;;1.40;;
61144;SDS011;47026;51.208;3.288;2022-10-16T08:08:26;3.78;;;1.42;;
61144;SDS011;47026;51.208;3.288;2022-10-16T08:10:54;4.78;;;1.42;;
61144;SDS011;47026;51.208;3.288;2022-10-16T08:13:20;4.10;;;1.40;;
61144;SDS011;47026;51.208;3.288;2022-10-16T08:15:46;6.40;;;1.50;;
61144;SDS011;47026;51.208;3.288;2022-10-16T08:18:12;5.20;;;1.73;;
61144;SDS011;47026;51.208;3.288;2022-10-16T08:20:40;5.20;;;1.30;;
61144;SDS011;47026;51.208;3.288;2022-10-16T08:23:07;2.83;;;1.20;;
61144;SDS011;47026;51.208;3.288;2022-10-16T08:25:34;3.35;;;1.30;;
61144;SDS011;47026;51.208;3.288;2022-10-16T08:28:03;5.90;;;1.35;;
61144;SDS011;47026;51.208;3.288;2022-10-16T08:30:30;6.43;;;1.75;;
61144;SDS011;47026;51.208;3.288;2022-10-16T08:32:56;3.58;;;1.48;;
61144;SDS011;47026;51.208;3.288;2022-10-16T08:35:23;6.55;;;1.70;;
61144;SDS011;47026;51.208;3.288;2022-10-16T08:37:51;5.62;;;1.40;;
61144;SDS011;47026;51.208;3.288;2022-10-16T08:40:18;3.47;;;1.27;;
61144;SDS011;47026;51.208;3.288;2022-10-16T08:48:33;5.80;;;1.90;;
61144;SDS011;47026;51.208;3.288;2022-10-16T08:51:01;4.70;;;1.70;;
61144;SDS011;47026;51.208;3.288;2022-10-16T08:53:29;3.58;;;1.50;;
61144;SDS011;47026;51.208;3.288;2022-10-16T08:56:00;6.18;;;1.30;;
61144;SDS011;47026;51.208;3.288;2022-10-16T08:58:27;6.43;;;1.60;;
61144;SDS011;47026;51.208;3.288;2022-10-16T09:00:55;4.20;;;1.60;;
61144;SDS011;47026;51.208;3.288;2022-10-16T09:08:46;7.72;;;2.00;;
61144;SDS011;47026;51.208;3.288;2022-10-16T09:11:53;5.95;;;1.55;;
61144;SDS011;47026;51.208;3.288;2022-10-16T09:16:54;6.70;;;1.62;;
61144;SDS011;47026;51.208;3.288;2022-10-16T09:21:59;5.72;;;1.60;;
61144;SDS011;47026;51.208;3.288;2022-10-16T09:24:27;7.43;;;1.77;;
61144;SDS011;47026;51.208;3.288;2022-10-16T09:26:53;7.78;;;1.80;;
61144;SDS011;47026;51.208;3.288;2022-10-16T09:29:19;7.20;;;1.70;;
61144;SDS011;47026;51.208;3.288;2022-10-16T09:31:46;11.43;;;1.87;;
61144;SDS011;47026;51.208;3.288;2022-10-16T09:34:23;7.50;;;1.50;;
61144;SDS011;47026;51.208;3.288;2022-10-16T09:39:17;6.33;;;1.87;;
61144;SDS011;47026;51.208;3.288;2022-10-16T09:41:44;6.57;;;1.85;;
61144;SDS011;47026;51.208;3.288;2022-10-16T09:44:29;4.05;;;1.48;;
61144;SDS011;47026;51.208;3.288;2022-10-16T09:47:10;6.35;;;1.48;;
61144;SDS011;47026;51.208;3.288;2022-10-16T09:52:47;7.50;;;1.80;;
61144;SDS011;47026;51.208;3.288;2022-10-16T09:55:14;7.37;;;1.58;;
61144;SDS011;47026;51.208;3.288;2022-10-16T09:57:54;6.50;;;1.90;;
61144;SDS011;47026;51.208;3.288;2022-10-16T10:00:20;7.00;;;1.62;;
61144;SDS011;47026;51.208;3.288;2022-10-16T10:02:47;5.32;;;1.40;;
61144;SDS011;47026;51.208;3.288;2022-10-16T10:05:17;6.57;;;1.85;;
61144;SDS011;47026;51.208;3.288;2022-10-16T10:07:52;8.80;;;1.80;;
61144;SDS011;47026;51.208;3.288;2022-10-16T10:10:28;9.90;;;2.45;;
61144;SDS011;47026;51.208;3.288;2022-10-16T10:12:56;5.78;;;1.92;;
61144;SDS011;47026;51.208;3.288;2022-10-16T10:15:22;9.38;;;3.00;;
61144;SDS011;47026;51.208;3.288;2022-10-16T10:17:50;8.82;;;2.05;;
61144;SDS011;47026;51.208;3.288;2022-10-16T10:20:28;8.35;;;2.30;;
61144;SDS011;47026;51.208;3.288;2022-10-16T10:22:57;6.00;;;1.87;;
61144;SDS011;47026;51.208;3.288;2022-10-16T10:34:17;10.65;;;2.20;;
61144;SDS011;47026;51.208;3.288;2022-10-16T10:36:49;12.40;;;2.40;;
61144;SDS011;47026;51.208;3.288;2022-10-16T10:39:33;9.32;;;3.03;;
61144;SDS011;47026;51.208;3.288;2022-10-16T10:47:16;9.55;;;2.15;;
61144;SDS011;47026;51.208;3.288;2022-10-16T10:50:10;10.48;;;2.22;;
61144;SDS011;47026;51.208;3.288;2022-10-16T10:52:51;9.90;;;2.28;;
61144;SDS011;47026;51.208;3.288;2022-10-16T10:55:38;11.40;;;2.30;;
61144;SDS011;47026;51.208;3.288;2022-10-16T11:04:01;10.73;;;2.90;;
61144;SDS011;47026;51.208;3.288;2022-10-16T11:06:55;9.10;;;1.80;;
61144;SDS011;47026;51.208;3.288;2022-10-16T11:09:24;12.68;;;2.80;;
61144;SDS011;47026;51.208;3.288;2022-10-16T11:14:46;6.82;;;2.00;;
61144;SDS011;47026;51.208;3.288;2022-10-16T11:17:23;7.62;;;1.73;;
61144;SDS011;47026;51.208;3.288;2022-10-16T11:19:57;6.93;;;1.80;;
61144;SDS011;47026;51.208;3.288;2022-10-16T11:22:37;10.82;;;1.83;;
61144;SDS011;47026;51.208;3.288;2022-10-16T11:27:49;9.95;;;1.67;;
61144;SDS011;47026;51.208;3.288;2022-10-16T11:30:41;7.40;;;1.70;;
61144;SDS011;47026;51.208;3.288;2022-10-16T11:42:36;11.02;;;1.75;;
61144;SDS011;47026;51.208;3.288;2022-10-16T11:48:01;8.85;;;1.60;;
61144;SDS011;47026;51.208;3.288;2022-10-16T11:50:51;9.32;;;2.40;;
61144;SDS011;47026;51.208;3.288;2022-10-16T11:56:15;9.07;;;2.10;;
61144;SDS011;47026;51.208;3.288;2022-10-16T12:01:49;8.15;;;1.50;;
61144;SDS011;47026;51.208;3.288;2022-10-16T12:04:34;8.50;;;2.00;;
61144;SDS011;47026;51.208;3.288;2022-10-16T12:07:21;6.00;;;1.30;;
61144;SDS011;47026;51.208;3.288;2022-10-16T12:09:56;6.87;;;2.00;;
61144;SDS011;47026;51.208;3.288;2022-10-16T12:15:17;7.25;;;1.90;;
61144;SDS011;47026;51.208;3.288;2022-10-16T12:17:44;7.80;;;1.45;;
61144;SDS011;47026;51.208;3.288;2022-10-16T12:22:47;7.43;;;1.60;;
61144;SDS011;47026;51.208;3.288;2022-10-16T12:27:53;9.73;;;2.42;;
61144;SDS011;47026;51.208;3.288;2022-10-16T12:30:24;5.68;;;1.30;;
61144;SDS011;47026;51.208;3.288;2022-10-16T12:32:56;8.07;;;1.73;;
61144;SDS011;47026;51.208;3.288;2022-10-16T12:35:32;7.85;;;1.92;;
61144;SDS011;47026;51.208;3.288;2022-10-16T12:38:04;6.50;;;1.92;;
61144;SDS011;47026;51.208;3.288;2022-10-16T12:40:39;6.35;;;1.95;;
61144;SDS011;47026;51.208;3.288;2022-10-16T12:46:04;6.95;;;1.98;;
61144;SDS011;47026;51.208;3.288;2022-10-16T12:48:33;7.05;;;2.03;;
61144;SDS011;47026;51.208;3.288;2022-10-16T12:51:19;6.90;;;1.80;;
61144;SDS011;47026;51.208;3.288;2022-10-16T12:53:59;7.40;;;2.10;;
61144;SDS011;47026;51.208;3.288;2022-10-16T12:59:06;4.55;;;1.50;;
61144;SDS011;47026;51.208;3.288;2022-10-16T13:04:47;5.72;;;1.40;;
61144;SDS011;47026;51.208;3.288;2022-10-16T13:07:32;4.80;;;1.48;;
61144;SDS011;47026;51.208;3.288;2022-10-16T13:18:23;6.35;;;1.80;;
61144;SDS011;47026;51.208;3.288;2022-10-16T13:23:58;5.35;;;2.08;;
61144;SDS011;47026;51.208;3.288;2022-10-16T13:26:44;5.57;;;1.87;;
61144;SDS011;47026;51.208;3.288;2022-10-16T13:29:12;9.27;;;1.87;;
61144;SDS011;47026;51.208;3.288;2022-10-16T13:31:38;6.43;;;1.77;;
61144;SDS011;47026;51.208;3.288;2022-10-16T13:34:05;8.57;;;1.90;;
61144;SDS011;47026;51.208;3.288;2022-10-16T13:36:42;6.40;;;1.75;;
61144;SDS011;47026;51.208;3.288;2022-10-16T13:39:29;6.62;;;1.55;;
61144;SDS011;47026;51.208;3.288;2022-10-16T13:44:27;9.90;;;2.10;;
61144;SDS011;47026;51.208;3.288;2022-10-16T13:47:02;6.75;;;1.70;;
61144;SDS011;47026;51.208;3.288;2022-10-16T13:49:27;4.50;;;1.55;;
61144;SDS011;47026;51.208;3.288;2022-10-16T13:51:54;7.68;;;1.50;;
61144;SDS011;47026;51.208;3.288;2022-10-16T13:54:22;7.57;;;1.50;;
61144;SDS011;47026;51.208;3.288;2022-10-16T13:56:48;5.05;;;1.58;;
61144;SDS011;47026;51.208;3.288;2022-10-16T13:59:27;4.93;;;1.52;;
61144;SDS011;47026;51.208;3.288;2022-10-16T14:01:59;4.65;;;1.48;;
61144;SDS011;47026;51.208;3.288;2022-10-16T14:04:31;3.87;;;1.08;;
61144;SDS011;47026;51.208;3.288;2022-10-16T14:06:58;5.47;;;1.10;;
61144;SDS011;47026;51.208;3.288;2022-10-16T14:09:30;5.60;;;1.60;;
61144;SDS011;47026;51.208;3.288;2022-10-16T14:11:57;7.35;;;1.83;;
61144;SDS011;47026;51.208;3.288;2022-10-16T14:14:34;6.97;;;1.80;;
61144;SDS011;47026;51.208;3.288;2022-10-16T14:17:05;4.80;;;1.50;;
61144;SDS011;47026;51.208;3.288;2022-10-16T14:19:31;2.05;;;1.15;;
61144;SDS011;47026;51.208;3.288;2022-10-16T14:21:57;5.40;;;1.40;;
61144;SDS011;47026;51.208;3.288;2022-10-16T14:24:34;4.05;;;1.20;;
61144;SDS011;47026;51.208;3.288;2022-10-16T14:27:00;2.83;;;1.40;;
61144;SDS011;47026;51.208;3.288;2022-10-16T14:29:27;5.05;;;1.30;;
61144;SDS011;47026;51.208;3.288;2022-10-16T14:32:03;6.60;;;1.50;;
61144;SDS011;47026;51.208;3.288;2022-10-16T14:34:31;5.50;;;1.48;;
61144;SDS011;47026;51.208;3.288;2022-10-16T14:37:08;7.43;;;1.20;;
61144;SDS011;47026;51.208;3.288;2022-10-16T14:39:51;5.95;;;1.60;;
61144;SDS011;47026;51.208;3.288;2022-10-16T14:42:18;5.87;;;1.70;;
61144;SDS011;47026;51.208;3.288;2022-10-16T14:44:48;3.50;;;1.40;;
61144;SDS011;47026;51.208;3.288;2022-10-16T14:47:18;6.78;;;1.23;;
61144;SDS011;47026;51.208;3.288;2022-10-16T14:49:50;4.72;;;1.40;;
61144;SDS011;47026;51.208;3.288;2022-10-16T14:52:18;3.80;;;1.42;;
61144;SDS011;47026;51.208;3.288;2022-10-16T14:54:43;5.47;;;1.30;;
61144;SDS011;47026;51.208;3.288;2022-10-16T14:57:17;3.80;;;1.10;;
61144;SDS011;47026;51.208;3.288;2022-10-16T14:59:44;4.45;;;1.23;;
61144;SDS011;47026;51.208;3.288;2022-10-16T15:04:46;3.67;;;1.20;;
61144;SDS011;47026;51.208;3.288;2022-10-16T15:07:12;2.55;;;1.27;;
61144;SDS011;47026;51.208;3.288;2022-10-16T15:09:37;4.12;;;1.20;;
61144;SDS011;47026;51.208;3.288;2022-10-16T15:12:03;4.82;;;1.30;;
61144;SDS011;47026;51.208;3.288;2022-10-16T15:14:29;4.30;;;1.30;;
61144;SDS011;47026;51.208;3.288;2022-10-16T15:16:55;5.10;;;1.30;;
61144;SDS011;47026;51.208;3.288;2022-10-16T15:19:20;3.72;;;1.40;;
61144;SDS011;47026;51.208;3.288;2022-10-16T15:21:46;5.72;;;1.45;;
61144;SDS011;47026;51.208;3.288;2022-10-16T15:24:13;3.00;;;1.10;;
61144;SDS011;47026;51.208;3.288;2022-10-16T15:26:39;2.90;;;1.40;;
61144;SDS011;47026;51.208;3.288;2022-10-16T15:29:04;4.25;;;1.05;;
61144;SDS011;47026;51.208;3.288;2022-10-16T15:31:30;3.95;;;1.10;;
61144;SDS011;47026;51.208;3.288;2022-10-16T15:33:57;1.58;;;1.02;;
61144;SDS011;47026;51.208;3.288;2022-10-16T15:36:31;2.47;;;1.20;;
61144;SDS011;47026;51.208;3.288;2022-10-16T15:39:01;3.28;;;1.05;;
61144;SDS011;47026;51.208;3.288;2022-10-16T15:41:31;2.55;;;1.10;;
61144;SDS011;47026;51.208;3.288;2022-10-16T15:43:57;4.12;;;1.73;;
61144;SDS011;47026;51.208;3.288;2022-10-16T15:46:23;2.28;;;1.20;;
61144;SDS011;47026;51.208;3.288;2022-10-16T15:48:50;3.45;;;1.17;;
61144;SDS011;47026;51.208;3.288;2022-10-16T15:51:20;2.97;;;1.00;;
61144;SDS011;47026;51.208;3.288;2022-10-16T15:53:45;3.25;;;1.17;;
61144;SDS011;47026;51.208;3.288;2022-10-16T15:56:11;4.45;;;1.20;;
61144;SDS011;47026;51.208;3.288;2022-10-16T15:58:38;2.35;;;1.12;;
61144;SDS011;47026;51.208;3.288;2022-10-16T16:01:03;4.97;;;1.17;;
61144;SDS011;47026;51.208;3.288;2022-10-16T16:03:30;2.28;;;0.80;;
61144;SDS011;47026;51.208;3.288;2022-10-16T16:05:56;2.17;;;0.90;;
61144;SDS011;47026;51.208;3.288;2022-10-16T16:08:22;4.05;;;1.50;;
61144;SDS011;47026;51.208;3.288;2022-10-16T16:13:43;2.40;;;1.10;;
61144;SDS011;47026;51.208;3.288;2022-10-16T16:16:13;4.82;;;1.17;;
61144;SDS011;47026;51.208;3.288;2022-10-16T16:18:40;6.37;;;1.60;;
61144;SDS011;47026;51.208;3.288;2022-10-16T16:21:06;3.47;;;1.37;;
61144;SDS011;47026;51.208;3.288;2022-10-16T16:23:32;4.62;;;1.10;;
61144;SDS011;47026;51.208;3.288;2022-10-16T16:26:02;2.65;;;1.10;;
61144;SDS011;47026;51.208;3.288;2022-10-16T16:28:48;4.78;;;1.42;;
61144;SDS011;47026;51.208;3.288;2022-10-16T16:31:14;3.03;;;1.33;;
61144;SDS011;47026;51.208;3.288;2022-10-16T16:33:40;5.68;;;2.20;;
61144;SDS011;47026;51.208;3.288;2022-10-16T16:36:05;5.60;;;1.95;;
61144;SDS011;47026;51.208;3.288;2022-10-16T16:38:31;6.80;;;2.20;;
61144;SDS011;47026;51.208;3.288;2022-10-16T16:40:58;5.12;;;1.85;;
61144;SDS011;47026;51.208;3.288;2022-10-16T16:43:24;3.28;;;1.52;;
61144;SDS011;47026;51.208;3.288;2022-10-16T16:45:51;4.62;;;1.48;;
61144;SDS011;47026;51.208;3.288;2022-10-16T16:48:17;4.50;;;1.98;;
61144;SDS011;47026;51.208;3.288;2022-10-16T16:50:43;5.47;;;1.70;;
61144;SDS011;47026;51.208;3.288;2022-10-16T16:53:09;3.83;;;1.70;;
61144;SDS011;47026;51.208;3.288;2022-10-16T16:55:35;4.20;;;1.42;;
61144;SDS011;47026;51.208;3.288;2022-10-16T16:58:00;3.72;;;1.60;;
61144;SDS011;47026;51.208;3.288;2022-10-16T17:00:27;4.45;;;1.40;;
61144;SDS011;47026;51.208;3.288;2022-10-16T17:02:53;5.40;;;1.17;;
61144;SDS011;47026;51.208;3.288;2022-10-16T17:07:44;2.85;;;1.30;;
61144;SDS011;47026;51.208;3.288;2022-10-16T17:12:36;3.70;;;1.52;;
61144;SDS011;47026;51.208;3.288;2022-10-16T17:15:02;3.45;;;1.50;;
61144;SDS011;47026;51.208;3.288;2022-10-16T17:17:27;3.87;;;1.80;;
61144;SDS011;47026;51.208;3.288;2022-10-16T17:19:53;4.45;;;1.87;;
61144;SDS011;47026;51.208;3.288;2022-10-16T17:24:47;4.10;;;2.10;;
61144;SDS011;47026;51.208;3.288;2022-10-16T17:27:14;8.70;;;2.62;;
61144;SDS011;47026;51.208;3.288;2022-10-16T17:32:06;8.55;;;4.72;;
61144;SDS011;47026;51.208;3.288;2022-10-16T17:34:31;8.45;;;3.80;;
61144;SDS011;47026;51.208;3.288;2022-10-16T17:39:22;7.05;;;4.20;;
61144;SDS011;47026;51.208;3.288;2022-10-16T17:44:14;5.22;;;3.92;;
61144;SDS011;47026;51.208;3.288;2022-10-16T17:46:51;11.00;;;4.68;;
61144;SDS011;47026;51.208;3.288;2022-10-16T17:49:17;6.55;;;3.97;;
61144;SDS011;47026;51.208;3.288;2022-10-16T17:51:44;9.40;;;3.78;;
61144;SDS011;47026;51.208;3.288;2022-10-16T17:56:38;7.95;;;4.07;;
61144;SDS011;47026;51.208;3.288;2022-10-16T18:01:30;9.88;;;4.40;;
61144;SDS011;47026;51.208;3.288;2022-10-16T18:04:02;10.10;;;4.43;;
61144;SDS011;47026;51.208;3.288;2022-10-16T18:06:31;9.85;;;4.97;;
61144;SDS011;47026;51.208;3.288;2022-10-16T18:08:58;6.18;;;4.25;;
61144;SDS011;47026;51.208;3.288;2022-10-16T18:11:27;9.45;;;5.45;;
61144;SDS011;47026;51.208;3.288;2022-10-16T18:13:54;10.13;;;5.20;;
61144;SDS011;47026;51.208;3.288;2022-10-16T18:16:21;7.90;;;5.12;;
61144;SDS011;47026;51.208;3.288;2022-10-16T18:18:48;10.57;;;5.45;;
61144;SDS011;47026;51.208;3.288;2022-10-16T18:23:41;10.45;;;5.78;;
61144;SDS011;47026;51.208;3.288;2022-10-16T18:26:08;8.13;;;5.78;;
61144;SDS011;47026;51.208;3.288;2022-10-16T18:28:35;10.65;;;5.97;;
61144;SDS011;47026;51.208;3.288;2022-10-16T18:33:28;10.57;;;5.82;;
61144;SDS011;47026;51.208;3.288;2022-10-16T18:35:55;10.25;;;5.62;;
61144;SDS011;47026;51.208;3.288;2022-10-16T18:38:24;9.00;;;5.60;;
61144;SDS011;47026;51.208;3.288;2022-10-16T18:43:15;10.73;;;5.60;;
61144;SDS011;47026;51.208;3.288;2022-10-16T18:45:41;8.48;;;4.47;;
61144;SDS011;47026;51.208;3.288;2022-10-16T18:50:32;7.85;;;4.60;;
61144;SDS011;47026;51.208;3.288;2022-10-16T18:55:24;6.93;;;4.53;;
61144;SDS011;47026;51.208;3.288;2022-10-16T19:00:15;7.53;;;4.30;;
61144;SDS011;47026;51.208;3.288;2022-10-16T19:05:06;16.17;;;9.38;;
61144;SDS011;47026;51.208;3.288;2022-10-16T19:07:34;18.25;;;11.10;;
61144;SDS011;47026;51.208;3.288;2022-10-16T19:12:25;26.98;;;12.75;;
61144;SDS011;47026;51.208;3.288;2022-10-16T19:17:16;26.45;;;14.52;;
61144;SDS011;47026;51.208;3.288;2022-10-16T19:22:07;8.23;;;4.62;;
61144;SDS011;47026;51.208;3.288;2022-10-16T19:24:38;9.80;;;5.40;;
61144;SDS011;47026;51.208;3.288;2022-10-16T19:27:13;11.15;;;6.50;;
61144;SDS011;47026;51.208;3.288;2022-10-16T19:32:04;11.70;;;6.28;;
61144;SDS011;47026;51.208;3.288;2022-10-16T19:36:55;9.07;;;4.45;;
61144;SDS011;47026;51.208;3.288;2022-10-16T19:41:49;10.27;;;6.65;;
61144;SDS011;47026;51.208;3.288;2022-10-16T19:44:16;19.12;;;12.13;;
61144;SDS011;47026;51.208;3.288;2022-10-16T19:46:42;10.10;;;6.15;;
61144;SDS011;47026;51.208;3.288;2022-10-16T19:49:10;9.48;;;5.28;;
61144;SDS011;47026;51.208;3.288;2022-10-16T19:51:37;9.18;;;4.43;;
61144;SDS011;47026;51.208;3.288;2022-10-16T19:54:05;9.88;;;5.40;;